Aeroporto :
LOGIN :

Iscrizione | Disclaimer

   EN    FR    IT 

 










Sommario :    VFR   VFR Marginale   IFR   IFR Intensivo   IFR Molto Intensivo
Visibilità : 
Base nubi : 
>= 8 km
>= 3000ft
5 / 8 km
1000 / 3000 ft
1500m / 5 km
500 / 1000 ft
800 / 1500m
200 / 500 ft
< 800m
< 200 ft
Simboli :   Temporali  Nebbia  Neve Forte  Precipitazioni Forti  Vento > 20 kt
SIGMETs :   Varie  Temporali  Ghiacco  Turbolenza  Onda orograficha  Ceneri Vulcaniche






- Altitudine del aeroporto : 17 ft
- Codice IATA : GRS


LIRS - Grosseto

ULTIMO METAR :
  • 151355Z 23013KT 9999 FEW040 35/17 Q1012 RMK FEW VIS MIN 9999 BLU

METARs OBSOLETI :
  • 151255Z 23013KT 9999 FEW040 36/18 Q1012 RMK FEW VIS MIN 9999 WIND THR03 26013KT WIND THR21 25012KT BLU
  • 151155Z 24011KT CAVOK 35/17 Q1012
  • 151055Z 21010KT CAVOK 34/17 Q1012 RMK SKC VIS MIN 9999 WIND THR03 22010KT WIND THR21 22008KT BLU
  • 150955Z 25002KT CAVOK 34/17 Q1012

TAF COR TAF LIRS
Valido dal 15 a 15 ore il 16 a 00 ore UTC


151400Z 1515/1524 24014KT CAVOK
BECMG 1518/1519 VRB03KT



MetMap, La meteo Aeronautica in un colpo d'occhio ! - Copyright ORBIFLY Dicembre 2007 - Disclaimer

ORBIFLY MET'MAP TEAM :

Programmazione e sviluppo : Alexandra Zaïnal
Concezione : Baudouin d'Aumeries
Supporto tecnico e logistico : Manuel Goepfert
Aiuto : Marc-Olivier Méhu
Aiuto per la traduzione : Arnaldo La Scala




FONTI E CREDITI :

   NOAA